Time;durP1;ratioP1;P1;durP2;ratioP2;P2;SDS_P1;SDS_P2;PMS_P1;PMS_P2;Temp;Humidity;BMP_temperature;BMP_pressure;BME280_temperature;BME280_humidity;BME280_pressure;Samples;Min_cycle;Max_cycle;Signal;HPM_P1;HPM_P2
2022/12/13 00:01:56;;;;;;;47.33;19.20;;;-1.40;99.90;;;;;;5030529;28;20021;-68
2022/12/13 00:04:23;;;;;;;39.17;16.17;;;-1.40;99.90;;;;;;5024085;28;20053;-68
2022/12/13 00:06:49;;;;;;;37.03;15.38;;;-1.40;99.90;;;;;;5025476;28;20108;-68
2022/12/13 00:09:17;;;;;;;36.10;16.00;;;-1.50;99.90;;;;;;5025860;28;20091;-68
2022/12/13 00:11:43;;;;;;;40.28;16.85;;;-1.40;99.90;;;;;;5025595;28;20053;-68
2022/12/13 00:14:10;;;;;;;35.35;16.23;;;-1.40;99.90;;;;;;5028910;28;20049;-68
2022/12/13 00:16:36;;;;;;;38.50;17.17;;;-1.50;99.90;;;;;;5024647;28;21035;-68
2022/12/13 00:19:02;;;;;;;39.50;17.40;;;-1.50;99.90;;;;;;5028114;28;20356;-68
2022/12/13 00:21:30;;;;;;;38.17;16.70;;;-1.50;99.90;;;;;;5023575;28;20026;-68
2022/12/13 00:23:56;;;;;;;38.25;16.85;;;-1.40;99.90;;;;;;5025484;28;20071;-69
2022/12/13 00:26:25;;;;;;;38.80;18.05;;;-1.50;99.90;;;;;;5027217;28;20504;-68
2022/12/13 00:28:51;;;;;;;45.45;18.58;;;-1.50;99.90;;;;;;5023599;28;20025;-68
2022/12/13 00:31:18;;;;;;;37.42;17.92;;;-1.50;99.90;;;;;;5026599;28;20459;-68
2022/12/13 00:33:44;;;;;;;41.80;18.00;;;-1.50;99.90;;;;;;5028350;28;20038;-69
2022/12/13 00:36:10;;;;;;;43.60;19.85;;;-1.50;99.90;;;;;;5028169;28;20359;-68
2022/12/13 00:38:36;;;;;;;40.00;18.50;;;-1.50;99.90;;;;;;5028324;28;20100;-68
2022/12/13 00:41:13;;;;;;;46.92;19.33;;;-1.50;99.90;;;;;;5029579;28;20029;-68
2022/12/13 00:43:39;;;;;;;46.63;20.30;;;-1.50;99.90;;;;;;5022369;28;20127;-68
2022/12/13 00:46:13;;;;;;;40.53;19.67;;;-1.50;99.90;;;;;;5027913;28;20025;-69
2022/12/13 00:48:39;;;;;;;43.20;19.23;;;-1.50;99.90;;;;;;5023640;28;20046;-69
2022/12/13 00:51:06;;;;;;;44.78;19.15;;;-1.60;99.90;;;;;;5029766;28;20033;-68
2022/12/13 00:53:32;;;;;;;48.63;19.60;;;-1.60;99.90;;;;;;5023121;28;20497;-69
2022/12/13 00:55:58;;;;;;;42.25;19.58;;;-1.70;99.90;;;;;;5026132;28;20025;-69
2022/12/13 00:58:23;;;;;;;39.60;18.05;;;-1.70;99.90;;;;;;5026558;28;20049;-69
2022/12/13 01:00:49;;;;;;;46.08;19.60;;;-1.70;99.90;;;;;;5028877;28;20029;-68
2022/12/13 01:03:24;;;;;;;40.92;18.27;;;-1.80;99.90;;;;;;5028320;28;20037;-68
2022/12/13 01:05:49;;;;;;;42.42;18.42;;;-1.70;99.90;;;;;;5027335;28;20026;-68
2022/12/13 01:08:15;;;;;;;38.72;18.80;;;-1.80;99.90;;;;;;5024885;28;20367;-68
2022/12/13 01:10:45;;;;;;;44.13;18.85;;;-1.80;99.90;;;;;;5025324;28;20985;-68
2022/12/13 01:13:11;;;;;;;40.90;18.27;;;-1.80;99.90;;;;;;5027488;28;20060;-68
2022/12/13 01:15:44;;;;;;;44.63;18.98;;;-1.80;99.90;;;;;;5026935;28;20266;-68
2022/12/13 01:18:13;;;;;;;;;;;-1.80;99.90;;;;;;5025429;28;20386;-68
2022/12/13 01:20:39;;;;;;;40.90;17.27;;;-1.80;99.90;;;;;;5026926;28;20000;-68
2022/12/13 01:23:05;;;;;;;43.53;17.30;;;-1.90;99.90;;;;;;5026729;28;20172;-68
2022/12/13 01:25:32;;;;;;;41.42;18.45;;;-1.80;99.90;;;;;;5024986;28;20431;-68
2022/12/13 01:27:58;;;;;;;42.30;18.25;;;-1.90;99.90;;;;;;5027266;28;20044;-68
2022/12/13 01:30:24;;;;;;;42.47;18.45;;;-1.90;99.90;;;;;;5022710;28;20109;-68
2022/12/13 01:32:50;;;;;;;43.10;18.25;;;-1.90;99.90;;;;;;5025931;28;20473;-69
2022/12/13 01:35:16;;;;;;;38.22;16.92;;;-1.90;99.90;;;;;;5027021;28;20465;-69
2022/12/13 01:37:41;;;;;;;45.80;18.15;;;-1.90;99.90;;;;;;5022576;28;20033;-68
2022/12/13 01:40:08;;;;;;;44.00;16.92;;;-1.90;99.90;;;;;;5022323;28;20034;-69
2022/12/13 01:42:37;;;;;;;46.35;18.60;;;-2.00;99.90;;;;;;5027401;28;20505;-68
2022/12/13 01:45:27;;;;;;;40.90;17.25;;;-2.10;99.90;;;;;;5029966;28;20347;-68
2022/12/13 01:47:57;;;;;;;42.15;18.17;;;-2.10;99.90;;;;;;5021466;28;20049;-68
2022/12/13 01:50:33;;;;;;;36.60;17.58;;;-2.10;99.90;;;;;;5022632;28;20577;-68
2022/12/13 01:52:59;;;;;;;42.80;18.00;;;-2.20;99.90;;;;;;5028006;28;20036;-68
2022/12/13 01:55:29;;;;;;;46.88;18.45;;;-2.20;99.90;;;;;;5027560;28;20026;-68
2022/12/13 01:57:58;;;;;;;43.45;18.58;;;-2.20;99.90;;;;;;5025348;28;20374;-68
2022/12/13 02:00:26;;;;;;;41.22;19.77;;;-2.30;99.90;;;;;;5023505;28;20041;-68
2022/12/13 02:02:55;;;;;;;39.00;17.65;;;-2.30;99.90;;;;;;5026309;28;20029;-68
2022/12/13 02:05:35;;;;;;;39.33;19.02;;;-2.20;99.90;;;;;;5019384;28;20040;-68
2022/12/13 02:08:02;;;;;;;39.90;18.45;;;-2.30;99.90;;;;;;5025550;28;20120;-69
2022/12/13 02:10:28;;;;;;;43.13;18.25;;;-2.20;99.90;;;;;;5024698;28;20393;-68
2022/12/13 02:12:54;;;;;;;51.65;19.50;;;-2.20;99.90;;;;;;5024970;28;20037;-68
2022/12/13 02:15:21;;;;;;;46.25;19.38;;;-2.30;99.90;;;;;;5025370;28;20034;-68
2022/12/13 02:18:14;;;;;;;49.90;19.42;;;-2.20;99.90;;;;;;5025805;28;20034;-68
2022/12/13 02:20:57;;;;;;;43.17;18.52;;;-2.30;99.90;;;;;;5027262;28;20068;-69
2022/12/13 02:23:46;;;;;;;40.50;18.60;;;-2.20;99.90;;;;;;5026766;28;20029;-68
2022/12/13 02:26:15;;;;;;;43.67;19.02;;;-2.20;99.90;;;;;;5004711;28;20132;-68
2022/12/13 02:29:11;;;;;;;43.42;18.80;;;-2.20;99.90;;;;;;5025479;28;20056;-67
2022/12/13 02:31:47;;;;;;;42.70;17.75;;;-2.30;99.90;;;;;;5026687;28;20488;-68
2022/12/13 02:34:43;;;;;;;41.72;17.50;;;-2.30;99.90;;;;;;5025345;28;20489;-69
2022/12/13 02:37:23;;;;;;;47.08;19.65;;;-2.30;99.90;;;;;;5055649;28;20508;-68
2022/12/13 02:40:08;;;;;;;44.13;18.67;;;-2.30;99.90;;;;;;5024709;28;20052;-68
2022/12/13 02:42:53;;;;;;;49.53;18.48;;;-2.30;99.90;;;;;;5022460;28;20034;-68
2022/12/13 02:45:43;;;;;;;48.60;19.08;;;-2.30;99.90;;;;;;5025236;28;20120;-68
2022/12/13 02:48:11;;;;;;;41.72;18.70;;;-2.30;99.90;;;;;;5021949;28;20053;-69
2022/12/13 02:50:37;;;;;;;47.47;20.20;;;-2.30;99.90;;;;;;5024657;28;20034;-68
2022/12/13 02:53:04;;;;;;;41.17;18.05;;;-2.40;99.90;;;;;;5027377;28;20120;-68
2022/12/13 02:55:34;;;;;;;47.33;18.08;;;-2.40;99.90;;;;;;5025749;28;20047;-68
2022/12/13 02:57:59;;;;;;;43.63;17.75;;;-2.40;99.90;;;;;;5023796;28;20022;-69
2022/12/13 03:00:56;;;;;;;46.55;18.73;;;-2.40;99.90;;;;;;5024770;28;20045;-67
2022/12/13 03:03:54;;;;;;;38.72;18.35;;;-2.40;99.90;;;;;;5028394;28;20036;-68
2022/12/13 03:06:31;;;;;;;42.60;19.02;;;-2.40;99.90;;;;;;4994017;28;20041;-68
2022/12/13 03:09:14;;;;;;;48.75;21.15;;;-2.40;99.90;;;;;;5026965;28;20037;-68
2022/12/13 03:15:11;;;;;;;49.00;19.40;;;-2.40;99.90;;;;;;5035099;28;20482;-68
2022/12/13 03:17:44;;;;;;;43.45;17.40;;;-2.40;99.90;;;;;;5031041;28;20032;-68
2022/12/13 03:20:16;;;;;;;45.40;17.90;;;-2.40;99.90;;;;;;5029975;28;20024;-68
2022/12/13 03:22:42;;;;;;;46.53;18.35;;;-2.40;99.90;;;;;;5027216;28;20449;-68
2022/12/13 03:25:08;;;;;;;38.20;17.88;;;-2.40;99.90;;;;;;5031611;28;20112;-68
2022/12/13 03:27:33;;;;;;;41.08;17.85;;;-2.40;99.90;;;;;;5032155;28;20034;-68
2022/12/13 03:29:59;;;;;;;42.97;17.67;;;-2.40;99.90;;;;;;5038258;28;20424;-68
2022/12/13 03:32:24;;;;;;;37.63;17.52;;;-2.40;99.90;;;;;;5022501;28;20716;-68
2022/12/13 03:34:50;;;;;;;45.88;18.83;;;-2.40;99.90;;;;;;5028739;28;20105;-68
2022/12/13 03:37:16;;;;;;;44.33;18.10;;;-2.40;99.90;;;;;;5023210;28;20037;-67
2022/12/13 03:39:41;;;;;;;44.65;18.17;;;-2.50;99.90;;;;;;5030153;28;20044;-68
2022/12/13 03:42:07;;;;;;;41.15;18.73;;;-2.50;99.90;;;;;;5023667;28;20113;-68
2022/12/13 03:44:32;;;;;;;46.08;19.02;;;-2.40;99.90;;;;;;5030479;28;20065;-68
2022/12/13 03:46:58;;;;;;;42.13;17.92;;;-2.40;99.90;;;;;;5033079;28;20433;-68
2022/12/13 03:49:24;;;;;;;41.50;18.42;;;-2.50;99.90;;;;;;5037482;28;20017;-68
2022/12/13 03:51:49;;;;;;;47.13;17.48;;;-2.50;99.90;;;;;;5029559;28;20289;-68
2022/12/13 03:54:15;;;;;;;46.45;20.27;;;-2.50;99.90;;;;;;5017585;28;20084;-69
2022/12/13 03:56:41;;;;;;;46.83;18.10;;;-2.50;99.90;;;;;;5027092;28;20018;-68
2022/12/13 03:59:06;;;;;;;38.97;17.77;;;-2.50;99.90;;;;;;5025136;28;20112;-67
2022/12/13 04:01:32;;;;;;;48.72;20.17;;;-2.50;99.90;;;;;;5026483;28;20018;-67
2022/12/13 04:03:58;;;;;;;46.10;18.83;;;-2.50;99.90;;;;;;5021963;28;20045;-68
2022/12/13 04:06:23;;;;;;;45.08;18.17;;;-2.50;99.90;;;;;;5039518;28;20036;-68
2022/12/13 04:08:50;;;;;;;49.63;19.02;;;-2.50;99.90;;;;;;5031692;28;20474;-68
2022/12/13 04:14:00;;;;;;;47.13;18.08;;;-2.60;99.90;;;;;;5029494;28;20560;-68
2022/12/13 04:16:25;;;;;;;46.60;18.50;;;-2.70;99.90;;;;;;5024471;28;20026;-68
2022/12/13 04:18:52;;;;;;;47.33;18.58;;;-2.70;99.90;;;;;;5031164;28;20084;-68
2022/12/13 04:21:18;;;;;;;41.90;18.40;;;-2.80;99.90;;;;;;5032122;28;20021;-68
2022/12/13 04:23:43;;;;;;;39.38;17.92;;;-2.70;99.90;;;;;;5024134;28;20477;-68
2022/12/13 04:26:09;;;;;;;43.67;18.27;;;-2.70;99.90;;;;;;5024639;28;20456;-68
2022/12/13 04:28:34;;;;;;;39.28;17.65;;;-2.80;99.90;;;;;;5066396;28;20033;-68
2022/12/13 04:31:00;;;;;;;45.13;18.73;;;-2.80;99.90;;;;;;5028154;28;20512;-68
2022/12/13 04:33:26;;;;;;;41.05;16.90;;;-2.70;99.90;;;;;;5019917;28;20057;-68
2022/12/13 04:35:51;;;;;;;42.65;18.02;;;-2.60;99.90;;;;;;5026096;28;20492;-68
2022/12/13 04:38:17;;;;;;;40.00;17.10;;;-2.60;99.90;;;;;;5033434;28;20081;-68
2022/12/13 04:40:43;;;;;;;42.08;19.80;;;-2.60;99.90;;;;;;5034030;28;20565;-68
2022/12/13 04:43:08;;;;;;;45.78;18.83;;;-2.60;99.90;;;;;;5021368;28;20029;-68
2022/12/13 04:45:34;;;;;;;44.15;18.30;;;-2.60;99.90;;;;;;5023726;28;20467;-68
2022/12/13 04:48:00;;;;;;;42.42;18.42;;;-2.60;99.90;;;;;;5026175;28;20095;-68
2022/12/13 04:50:25;;;;;;;45.33;17.65;;;-2.60;99.90;;;;;;5030150;28;20088;-67
2022/12/13 04:52:51;;;;;;;44.08;18.40;;;-2.60;99.90;;;;;;5030107;28;20023;-67
2022/12/13 04:55:16;;;;;;;45.03;19.60;;;-2.60;99.90;;;;;;5023034;28;20508;-67
2022/12/13 04:57:42;;;;;;;41.85;18.63;;;-2.60;99.90;;;;;;5027991;28;20032;-67
2022/12/13 05:00:12;;;;;;;45.20;19.13;;;-2.60;99.90;;;;;;5029354;28;21029;-67
2022/12/13 05:02:38;;;;;;;39.13;17.65;;;-2.60;99.90;;;;;;5020597;28;20397;-67
2022/12/13 05:05:03;;;;;;;40.33;18.30;;;-2.70;99.90;;;;;;5020174;28;20031;-68
2022/12/13 05:07:29;;;;;;;45.63;19.42;;;-2.70;99.90;;;;;;5031604;28;20034;-68
2022/12/13 05:09:55;;;;;;;43.65;18.63;;;-2.60;99.90;;;;;;5025689;28;20064;-68
2022/12/13 05:12:20;;;;;;;45.13;19.05;;;-2.70;99.90;;;;;;5030626;28;20044;-68
2022/12/13 05:14:46;;;;;;;42.10;18.58;;;-2.70;99.90;;;;;;5017405;28;20079;-67
2022/12/13 05:17:11;;;;;;;44.85;18.67;;;-2.60;99.90;;;;;;5026852;28;20051;-68
2022/12/13 05:19:37;;;;;;;42.70;18.38;;;-2.70;99.90;;;;;;5026027;28;20017;-67
2022/12/13 05:22:03;;;;;;;42.97;17.45;;;-2.70;99.90;;;;;;5028676;28;20450;-68
2022/12/13 05:24:30;;;;;;;48.67;18.80;;;-2.60;99.90;;;;;;5033155;28;20018;-67
2022/12/13 05:26:57;;;;;;;45.63;18.95;;;-2.70;99.90;;;;;;5029150;28;20037;-67
2022/12/13 05:29:22;;;;;;;42.47;17.77;;;-2.60;99.90;;;;;;5027224;28;20038;-68
2022/12/13 05:31:48;;;;;;;37.95;18.70;;;-2.60;99.90;;;;;;5027182;28;20037;-67
2022/12/13 05:34:13;;;;;;;40.80;18.17;;;-2.60;99.90;;;;;;5031941;28;20041;-67
2022/12/13 05:36:39;;;;;;;42.13;17.38;;;-2.60;99.90;;;;;;5031134;28;20032;-67
2022/12/13 05:39:04;;;;;;;39.22;16.10;;;-2.60;99.90;;;;;;5030461;28;20473;-68
2022/12/13 05:41:33;;;;;;;38.67;16.10;;;-2.70;99.90;;;;;;5022826;28;20067;-67
2022/12/13 05:43:58;;;;;;;44.00;19.70;;;-2.60;99.90;;;;;;5021378;28;20025;-68
2022/12/13 05:46:24;;;;;;;41.95;17.27;;;-2.70;99.90;;;;;;5019591;28;20034;-68
2022/12/13 05:48:49;;;;;;;40.45;18.20;;;-2.70;99.90;;;;;;5027091;28;20033;-67
2022/12/13 05:51:15;;;;;;;40.63;17.27;;;-2.70;99.90;;;;;;5027481;28;20033;-67
2022/12/13 05:53:41;;;;;;;40.28;18.15;;;-2.70;99.90;;;;;;5022370;28;20100;-67
2022/12/13 05:56:08;;;;;;;41.05;18.17;;;-2.70;99.90;;;;;;5024159;28;20060;-67
2022/12/13 05:58:35;;;;;;;45.40;18.45;;;-2.80;99.90;;;;;;5026120;28;20080;-68
2022/12/13 06:01:14;;;;;;;39.85;17.58;;;-2.70;99.90;;;;;;5023982;28;20025;-67
2022/12/13 06:03:40;;;;;;;37.75;17.50;;;-2.70;99.90;;;;;;5025379;28;20017;-67
2022/12/13 06:06:09;;;;;;;37.75;16.25;;;-2.70;99.90;;;;;;5027817;28;20032;-67
2022/12/13 06:08:34;;;;;;;45.10;17.48;;;-2.70;99.90;;;;;;5029122;28;20062;-67
2022/12/13 06:11:01;;;;;;;44.28;18.42;;;-2.70;99.90;;;;;;5025839;28;20022;-67
2022/12/13 06:13:27;;;;;;;41.50;15.55;;;-2.80;99.90;;;;;;5023299;28;20553;-67
2022/12/13 06:15:53;;;;;;;39.67;16.27;;;-2.80;99.90;;;;;;5026043;28;20494;-67
2022/12/13 06:18:19;;;;;;;41.47;17.58;;;-2.90;99.90;;;;;;5025820;28;20541;-67
2022/12/13 06:20:54;;;;;;;35.50;16.65;;;-2.80;99.90;;;;;;5029251;28;20124;-68
2022/12/13 06:23:19;;;;;;;44.63;16.85;;;-2.90;99.90;;;;;;5021395;28;20398;-68
2022/12/13 06:25:45;;;;;;;38.10;16.00;;;-2.90;99.90;;;;;;5025284;28;20040;-67
2022/12/13 06:28:10;;;;;;;40.67;17.02;;;-2.90;99.90;;;;;;5019743;28;20164;-67
2022/12/13 06:30:36;;;;;;;37.50;16.30;;;-2.90;99.90;;;;;;5025372;28;20292;-67
2022/12/13 06:33:02;;;;;;;44.35;18.85;;;-2.90;99.90;;;;;;5028152;28;20040;-67
2022/12/13 06:35:27;;;;;;;42.55;16.67;;;-2.90;99.90;;;;;;5024896;28;20022;-68
2022/12/13 06:37:53;;;;;;;34.58;16.05;;;-2.90;99.90;;;;;;5025674;28;20068;-68
2022/12/13 06:40:19;;;;;;;41.40;16.98;;;-3.00;99.90;;;;;;5024868;28;20470;-68
2022/12/13 06:42:44;;;;;;;45.22;17.77;;;-2.90;99.90;;;;;;5025279;28;20026;-67
2022/12/13 06:45:10;;;;;;;46.20;17.73;;;-3.00;99.90;;;;;;5020653;28;20080;-67
2022/12/13 06:47:36;;;;;;;41.40;16.58;;;-3.00;99.90;;;;;;5025583;28;20501;-68
2022/12/13 06:50:02;;;;;;;39.67;16.65;;;-3.00;99.90;;;;;;5020618;28;20108;-67
2022/12/13 06:52:27;;;;;;;43.05;17.40;;;-3.00;99.90;;;;;;5029459;28;20113;-67
2022/12/13 06:54:53;;;;;;;43.17;17.70;;;-3.10;99.90;;;;;;5024324;28;20105;-67
2022/12/13 06:57:18;;;;;;;37.78;16.35;;;-3.20;99.90;;;;;;5022277;28;20068;-67
2022/12/13 06:59:44;;;;;;;38.72;17.00;;;-3.10;99.90;;;;;;5024519;28;20108;-67
2022/12/13 07:02:10;;;;;;;47.30;17.98;;;-3.20;99.90;;;;;;5027654;28;20049;-67
2022/12/13 07:04:35;;;;;;;45.22;17.40;;;-3.20;99.90;;;;;;5029334;28;20431;-68
2022/12/13 07:07:01;;;;;;;40.72;16.95;;;-3.20;99.90;;;;;;5027742;28;20041;-67
2022/12/13 07:09:30;;;;;;;38.67;16.70;;;-3.20;99.90;;;;;;5024612;28;20021;-68
2022/12/13 07:11:56;;;;;;;48.20;16.52;;;-3.10;99.90;;;;;;5025130;28;20053;-67
2022/12/13 07:14:22;;;;;;;35.10;15.35;;;-3.20;99.90;;;;;;5026252;28;20072;-67
2022/12/13 07:16:47;;;;;;;41.75;16.45;;;-3.10;99.90;;;;;;5030556;28;20113;-68
2022/12/13 07:19:13;;;;;;;44.17;17.23;;;-3.10;99.90;;;;;;5031284;28;20032;-68
2022/12/13 07:21:38;;;;;;;44.80;17.38;;;-3.20;99.90;;;;;;5019823;28;20381;-67
2022/12/13 07:24:05;;;;;;;43.00;16.48;;;-3.20;99.90;;;;;;5025365;28;20029;-67
2022/12/13 07:26:31;;;;;;;39.10;17.00;;;-3.20;99.90;;;;;;5022852;28;20034;-68
2022/12/13 07:28:56;;;;;;;48.92;17.98;;;-3.20;99.90;;;;;;5022933;28;20041;-67
2022/12/13 07:31:23;;;;;;;39.53;16.45;;;-3.30;99.90;;;;;;5031691;28;20017;-67
2022/12/13 07:33:49;;;;;;;53.47;19.70;;;-3.20;99.90;;;;;;5023632;28;20493;-68
2022/12/13 07:36:18;;;;;;;54.67;17.67;;;-3.20;99.90;;;;;;5019517;28;20026;-68
2022/12/13 07:38:44;;;;;;;55.97;17.20;;;-3.20;99.90;;;;;;5026136;28;20156;-67
2022/12/13 07:41:10;;;;;;;51.00;16.30;;;-3.20;99.90;;;;;;5032227;28;20053;-67
2022/12/13 07:43:36;;;;;;;48.47;17.27;;;-3.30;99.90;;;;;;5022727;28;20116;-68
2022/12/13 07:46:04;;;;;;;42.58;17.77;;;-3.20;99.90;;;;;;5026082;28;20096;-67
2022/12/13 07:48:30;;;;;;;43.85;19.17;;;-3.30;99.90;;;;;;5033938;28;20030;-67
2022/12/13 07:51:01;;;;;;;46.90;18.90;;;-3.20;99.90;;;;;;5020835;28;20520;-68
2022/12/13 07:53:27;;;;;;;44.27;17.63;;;-3.30;99.90;;;;;;5022007;28;20042;-67
2022/12/13 07:55:53;;;;;;;48.53;18.20;;;-3.20;99.90;;;;;;5028252;28;20075;-67
2022/12/13 07:58:18;;;;;;;41.85;17.42;;;-3.20;99.90;;;;;;5027038;28;20446;-67
2022/12/13 08:00:45;;;;;;;50.35;17.90;;;-3.10;99.90;;;;;;5032418;28;20036;-67
2022/12/13 08:03:11;;;;;;;53.45;17.77;;;-3.20;99.90;;;;;;5021004;28;20032;-67
2022/12/13 08:05:37;;;;;;;47.08;17.45;;;-3.10;99.90;;;;;;5026327;28;20033;-68
2022/12/13 08:08:06;;;;;;;46.00;19.00;;;-3.10;99.90;;;;;;5023703;28;20033;-67
2022/12/13 08:10:31;;;;;;;45.95;18.17;;;-3.10;99.90;;;;;;5024741;28;20556;-67
2022/12/13 08:12:57;;;;;;;52.65;18.15;;;-3.00;99.90;;;;;;5029323;28;20056;-67
2022/12/13 08:15:24;;;;;;;49.58;19.92;;;-3.10;99.90;;;;;;5030025;28;20044;-68
2022/12/13 08:17:50;;;;;;;70.82;26.67;;;-3.00;99.90;;;;;;5023642;28;20033;-67
2022/12/13 08:20:16;;;;;;;56.85;22.00;;;-3.00;99.90;;;;;;5027377;28;20025;-67
2022/12/13 08:22:42;;;;;;;65.97;23.17;;;-3.00;99.90;;;;;;5021826;28;20026;-67
2022/12/13 08:25:08;;;;;;;58.53;23.20;;;-2.90;99.90;;;;;;5026538;28;20072;-67
2022/12/13 08:27:34;;;;;;;68.07;25.30;;;-2.90;99.90;;;;;;5027465;28;20049;-67
2022/12/13 08:29:59;;;;;;;90.00;29.58;;;-2.90;99.90;;;;;;5023065;28;20026;-68
2022/12/13 08:32:25;;;;;;;61.72;24.73;;;-2.90;99.90;;;;;;5029168;28;20485;-67
2022/12/13 08:34:51;;;;;;;88.13;32.35;;;-2.90;99.90;;;;;;5024857;28;20026;-67
2022/12/13 08:37:16;;;;;;;87.18;31.00;;;-3.00;99.90;;;;;;5031878;28;20029;-68
2022/12/13 08:39:43;;;;;;;85.93;31.50;;;-3.00;99.90;;;;;;5026330;28;20466;-67
2022/12/13 08:42:14;;;;;;;100.63;35.58;;;-2.90;99.90;;;;;;5023771;28;20076;-67
2022/12/13 08:44:40;;;;;;;99.93;35.53;;;-3.00;99.90;;;;;;5031316;28;20029;-67
2022/12/13 08:47:06;;;;;;;96.05;33.40;;;-2.90;99.90;;;;;;5029694;28;20100;-67
2022/12/13 08:49:31;;;;;;;90.72;32.03;;;-2.80;99.90;;;;;;5019090;28;20033;-67
2022/12/13 08:51:57;;;;;;;112.03;37.40;;;-2.80;99.90;;;;;;5020137;28;20030;-68
2022/12/13 08:54:23;;;;;;;99.03;34.53;;;-2.80;99.90;;;;;;5020587;28;20083;-69
2022/12/13 08:56:48;;;;;;;96.47;34.92;;;-2.70;99.90;;;;;;5033611;28;20026;-68
2022/12/13 08:59:14;;;;;;;105.05;35.35;;;-2.80;99.90;;;;;;5031519;28;20104;-69
2022/12/13 09:01:40;;;;;;;92.38;32.72;;;-2.70;99.90;;;;;;5029241;28;20057;-68
2022/12/13 09:04:05;;;;;;;104.22;35.97;;;-2.70;99.90;;;;;;5023194;28;20109;-69
2022/12/13 09:06:31;;;;;;;104.57;35.92;;;-2.70;99.90;;;;;;5025117;28;20086;-68
2022/12/13 09:08:56;;;;;;;107.18;36.80;;;-2.60;99.90;;;;;;5018798;28;20038;-69
2022/12/13 09:11:22;;;;;;;105.32;36.53;;;-2.60;99.90;;;;;;5029462;28;20542;-68
2022/12/13 09:13:48;;;;;;;105.88;36.70;;;-2.50;99.90;;;;;;5028281;28;20025;-67
2022/12/13 09:16:21;;;;;;;95.97;35.65;;;-2.50;99.90;;;;;;5022243;28;20029;-68
2022/12/13 09:18:46;;;;;;;105.80;37.28;;;-2.40;99.90;;;;;;5023784;28;20034;-67
2022/12/13 09:21:13;;;;;;;106.90;38.75;;;-2.40;99.90;;;;;;5025541;28;20051;-68
2022/12/13 09:23:43;;;;;;;109.70;37.47;;;-2.30;99.90;;;;;;5031593;28;20033;-68
2022/12/13 09:26:11;;;;;;;110.28;38.03;;;-2.30;99.90;;;;;;5023193;28;20021;-67
2022/12/13 09:28:37;;;;;;;107.95;37.85;;;-2.20;99.90;;;;;;5041494;28;20039;-68
2022/12/13 09:31:12;;;;;;;111.47;38.67;;;-2.10;99.90;;;;;;5023729;28;20030;-68
2022/12/13 09:33:38;;;;;;;111.85;38.13;;;-2.00;99.90;;;;;;5025322;28;20489;-67
2022/12/13 09:36:06;;;;;;;112.70;38.83;;;-1.90;99.90;;;;;;5028244;28;20108;-68
2022/12/13 09:38:35;;;;;;;125.82;39.85;;;-1.90;99.90;;;;;;5024863;28;20473;-68
2022/12/13 09:41:25;;;;;;;109.97;39.25;;;-1.90;99.90;;;;;;5030832;28;20034;-68
2022/12/13 09:44:04;;;;;;;117.28;38.53;;;-1.70;99.90;;;;;;5028407;28;20024;-68
2022/12/13 09:46:36;;;;;;;114.03;39.83;;;-1.70;99.90;;;;;;5023024;28;20501;-67
2022/12/13 09:49:06;;;;;;;149.40;40.45;;;-1.60;99.90;;;;;;5028084;28;20025;-68
2022/12/13 09:51:32;;;;;;;126.60;37.53;;;-1.60;99.90;;;;;;5027306;28;20026;-67
2022/12/13 09:53:59;;;;;;;112.57;39.10;;;-1.50;99.90;;;;;;5026127;28;20030;-67
2022/12/13 09:56:24;;;;;;;116.78;38.67;;;-1.40;99.90;;;;;;5027379;28;20029;-67
2022/12/13 09:58:52;;;;;;;107.60;37.80;;;-1.40;99.90;;;;;;5027644;28;20183;-67
2022/12/13 10:01:19;;;;;;;110.63;38.92;;;-1.40;99.90;;;;;;5027926;28;20499;-67
2022/12/13 10:03:48;;;;;;;103.13;37.60;;;-1.40;99.90;;;;;;5030235;28;20393;-67
2022/12/13 10:06:17;;;;;;;105.80;38.67;;;-1.30;99.90;;;;;;5019064;28;20371;-67
2022/12/13 10:08:47;;;;;;;116.97;40.40;;;-1.30;99.90;;;;;;5029455;28;20037;-67
2022/12/13 10:11:15;;;;;;;109.25;38.95;;;-1.10;99.90;;;;;;5022585;28;20049;-67
2022/12/13 10:13:48;;;;;;;104.82;39.25;;;-1.00;99.90;;;;;;5020429;28;20543;-67
2022/12/13 10:16:25;;;;;;;102.82;36.80;;;-1.00;99.90;;;;;;5015399;28;20026;-68
2022/12/13 10:18:51;;;;;;;102.22;36.25;;;-1.00;99.90;;;;;;5021036;28;20116;-67
2022/12/13 10:21:30;;;;;;;105.85;37.28;;;-0.80;99.90;;;;;;5030189;28;20026;-67
2022/12/13 10:24:14;;;;;;;110.68;37.47;;;-0.80;99.90;;;;;;5024405;28;20430;-67
2022/12/13 10:26:40;;;;;;;105.00;36.85;;;-0.70;99.90;;;;;;5027410;28;20017;-67
2022/12/13 10:29:07;;;;;;;107.47;37.35;;;-0.60;99.90;;;;;;5033574;28;20033;-67
2022/12/13 10:31:47;;;;;;;95.80;35.90;;;-0.50;99.90;;;;;;5025565;28;20508;-67
2022/12/13 10:34:34;;;;;;;100.80;36.83;;;-0.40;99.90;;;;;;5026095;28;20036;-67
2022/12/13 10:37:22;;;;;;;97.57;37.67;;;-0.30;99.90;;;;;;5029614;28;20100;-67
2022/12/13 10:39:47;;;;;;;100.63;35.95;;;-0.40;99.90;;;;;;5023821;28;20060;-67
2022/12/13 10:42:20;;;;;;;101.90;39.38;;;-0.40;99.90;;;;;;5014372;28;20470;-68
2022/12/13 10:44:46;;;;;;;;;;;-0.40;99.90;;;;;;5005682;28;20052;-67
2022/12/13 10:47:21;;;;;;;84.82;32.58;;;-0.30;99.90;;;;;;5024664;28;20357;-67
2022/12/13 10:49:55;;;;;;;88.38;33.50;;;-0.40;99.90;;;;;;5024660;28;20029;-67
2022/12/13 10:52:31;;;;;;;101.32;36.63;;;-0.30;99.90;;;;;;5024297;28;20093;-67
2022/12/13 10:55:03;;;;;;;97.15;35.33;;;-0.30;99.90;;;;;;5020803;28;20151;-67
2022/12/13 10:57:30;;;;;;;91.40;35.17;;;-0.30;99.90;;;;;;5024082;28;20034;-67
2022/12/13 10:59:56;;;;;;;96.60;36.38;;;-0.30;99.90;;;;;;5025079;28;20521;-67
2022/12/13 11:02:29;;;;;;;95.18;36.85;;;-0.30;99.90;;;;;;5024692;28;20056;-67
2022/12/13 11:04:57;;;;;;;92.68;36.63;;;-0.20;99.90;;;;;;5022923;28;20048;-67
2022/12/13 11:07:30;;;;;;;93.95;33.38;;;-0.20;99.90;;;;;;5023236;28;20517;-67
2022/12/13 11:10:14;;;;;;;91.18;36.30;;;-0.20;99.90;;;;;;5022555;28;20075;-67
2022/12/13 11:12:40;;;;;;;94.20;36.65;;;-0.10;99.90;;;;;;5024027;28;22383;-67
2022/12/13 11:15:13;;;;;;;98.78;34.17;;;0.00;99.90;;;;;;5025468;28;20025;-67
2022/12/13 11:17:47;;;;;;;90.32;34.30;;;0.00;99.90;;;;;;5027888;28;20557;-67
2022/12/13 11:20:46;;;;;;;79.82;31.83;;;0.10;99.90;;;;;;5025897;28;20037;-67
2022/12/13 11:23:26;;;;;;;82.82;34.53;;;0.10;99.90;;;;;;5025245;28;20092;-67
2022/12/13 11:25:59;;;;;;;85.53;33.17;;;0.10;99.90;;;;;;5027064;28;20075;-67
2022/12/13 11:28:47;;;;;;;93.10;34.78;;;0.20;99.90;;;;;;5025855;28;20040;-67
2022/12/13 11:31:37;;;;;;;88.97;34.65;;;0.30;99.90;;;;;;5024875;28;20092;-67
2022/12/13 11:34:32;;;;;;;83.70;32.72;;;0.30;99.90;;;;;;5027130;28;20569;-68
2022/12/13 11:37:24;;;;;;;80.07;31.23;;;0.30;99.90;;;;;;5021516;28;20080;-67
2022/12/13 11:40:01;;;;;;;79.93;32.08;;;0.30;99.90;;;;;;5028700;28;20022;-68
2022/12/13 11:42:54;;;;;;;79.40;31.52;;;0.30;99.90;;;;;;5029259;28;20032;-67
2022/12/13 11:45:36;;;;;;;74.85;31.80;;;0.40;99.90;;;;;;5026420;28;20037;-67
2022/12/13 11:48:09;;;;;;;84.35;33.05;;;0.40;99.90;;;;;;5027481;28;20033;-67
2022/12/13 11:50:38;;;;;;;82.40;34.50;;;0.40;99.90;;;;;;5027531;28;20025;-67
2022/12/13 11:53:38;;;;;;;82.35;32.53;;;0.50;99.90;;;;;;5026561;28;20516;-67
2022/12/13 11:56:26;;;;;;;72.95;30.50;;;0.50;99.90;;;;;;5029801;28;20022;-67
2022/12/13 11:59:06;;;;;;;76.03;30.45;;;0.40;99.90;;;;;;5024966;28;20036;-67
2022/12/13 12:01:46;;;;;;;72.57;31.38;;;0.50;99.90;;;;;;5028866;28;20053;-67
2022/12/13 12:04:11;;;;;;;76.57;31.95;;;0.50;99.90;;;;;;5030699;28;20033;-67
2022/12/13 12:06:49;;;;;;;71.47;31.27;;;0.50;99.90;;;;;;5029211;28;20022;-67
2022/12/13 12:09:17;;;;;;;67.28;30.48;;;0.40;99.90;;;;;;5029968;28;20029;-67
2022/12/13 12:11:50;;;;;;;67.35;28.83;;;0.50;99.90;;;;;;5027196;28;20034;-67
2022/12/13 12:14:30;;;;;;;68.30;28.83;;;0.40;99.90;;;;;;5023190;28;20043;-67
2022/12/13 12:16:59;;;;;;;67.85;27.75;;;0.40;99.90;;;;;;5027608;28;20441;-68
2022/12/13 12:19:33;;;;;;;66.38;28.17;;;0.40;99.90;;;;;;5029359;28;20041;-67
2022/12/13 12:22:02;;;;;;;67.55;28.77;;;0.40;99.90;;;;;;5026482;28;20470;-69
2022/12/13 12:24:49;;;;;;;64.45;27.42;;;0.50;99.90;;;;;;5027176;28;20033;-69
2022/12/13 12:27:42;;;;;;;75.28;30.05;;;0.60;99.90;;;;;;5025774;28;20029;-66
2022/12/13 12:30:13;;;;;;;;;;;0.70;99.90;;;;;;5024815;28;20359;-67
2022/12/13 12:32:51;;;;;;;76.80;30.52;;;0.70;99.90;;;;;;5024558;28;19909;-68
2022/12/13 12:35:17;;;;;;;73.60;30.75;;;0.80;99.90;;;;;;5027358;28;20017;-68
2022/12/13 12:37:52;;;;;;;66.45;28.80;;;0.90;99.90;;;;;;5027126;28;20037;-68
2022/12/13 12:40:34;;;;;;;67.53;29.27;;;0.90;99.90;;;;;;5026067;28;20013;-68
2022/12/13 12:43:24;;;;;;;71.38;29.52;;;1.00;99.90;;;;;;5026730;28;20022;-68
2022/12/13 12:45:56;;;;;;;66.97;29.42;;;0.90;99.90;;;;;;5025841;28;20445;-68
2022/12/13 12:48:33;;;;;;;71.15;29.10;;;1.00;99.90;;;;;;5027187;28;20045;-67